createdAt,value
2023-04-30T00:00:17.025Z,23
2023-04-30T00:05:35.376Z,23
2023-04-30T00:10:53.341Z,23.1
2023-04-30T00:16:11.810Z,23
2023-04-30T00:21:30.374Z,23.1
2023-04-30T00:26:48.544Z,23.1
2023-04-30T00:32:07.061Z,23.1
2023-04-30T00:37:25.680Z,23.1
2023-04-30T00:42:44.234Z,23.1
2023-04-30T00:48:02.540Z,23.1
2023-04-30T00:53:20.970Z,23.1
2023-04-30T00:58:39.359Z,23.1
2023-04-30T01:03:57.719Z,23.1
2023-04-30T01:09:16.042Z,23.1
2023-04-30T01:14:34.613Z,23.1
2023-04-30T01:19:53.374Z,23.1
2023-04-30T01:25:11.979Z,23.1
2023-04-30T01:30:14.756Z,23.1
2023-04-30T01:35:32.949Z,23.1
2023-04-30T01:40:51.336Z,23.1
2023-04-30T01:46:10.031Z,23.1
2023-04-30T01:51:28.371Z,23.1
2023-04-30T01:56:46.543Z,23.1
2023-04-30T02:02:04.552Z,23.1
2023-04-30T02:07:22.707Z,23.1
2023-04-30T02:12:40.864Z,23.1
2023-04-30T02:17:59.108Z,23.1
2023-04-30T02:23:17.567Z,23.1
2023-04-30T02:28:36.068Z,23.2
2023-04-30T02:33:54.641Z,23.1
2023-04-30T02:39:12.899Z,23.1
2023-04-30T02:44:31.405Z,23.2
2023-04-30T02:49:49.754Z,23.2
2023-04-30T02:55:08.144Z,23.2
2023-04-30T03:00:26.150Z,23.2
2023-04-30T03:05:44.302Z,23.2
2023-04-30T03:11:02.466Z,23.2
2023-04-30T03:16:21.060Z,23.2
2023-04-30T03:21:39.692Z,23.2
2023-04-30T03:26:58.093Z,23.2
2023-04-30T03:32:16.217Z,23.2
2023-04-30T03:37:34.786Z,23.2
2023-04-30T03:42:53.203Z,23.2
2023-04-30T03:48:11.764Z,23.2
2023-04-30T03:53:29.945Z,23.2
2023-04-30T03:58:48.349Z,23.2
2023-04-30T04:04:06.683Z,23.2
2023-04-30T04:09:25.114Z,23.2
2023-04-30T04:14:43.348Z,23.2
2023-04-30T04:20:01.901Z,23.2
2023-04-30T04:25:20.074Z,23.2
2023-04-30T04:30:38.599Z,23.2
2023-04-30T04:35:56.728Z,23.2
2023-04-30T04:41:15.104Z,23.2
2023-04-30T04:46:33.465Z,23.2
2023-04-30T04:51:51.504Z,23.2
2023-04-30T04:57:09.685Z,23.2
2023-04-30T05:02:27.916Z,23.2
2023-04-30T05:07:46.311Z,23.2
2023-04-30T05:13:04.669Z,23.2
2023-04-30T05:18:23.004Z,23.2
2023-04-30T05:23:41.191Z,23.2
2023-04-30T05:28:59.375Z,23.2
2023-04-30T05:34:17.394Z,23.2
2023-04-30T05:39:35.924Z,23.2
2023-04-30T05:44:54.264Z,23.2
2023-04-30T05:50:12.665Z,23.2
2023-04-30T05:55:33.835Z,23.3
2023-04-30T06:00:52.188Z,23.3
2023-04-30T06:06:10.590Z,23.3
2023-04-30T06:11:30.039Z,23.3
2023-04-30T06:16:48.619Z,23.3
2023-04-30T06:22:06.994Z,23.3
2023-04-30T06:27:25.263Z,23.3
2023-04-30T06:32:44.140Z,23.3
2023-04-30T06:38:02.814Z,23.4
2023-04-30T06:43:21.268Z,23.4
2023-04-30T06:48:39.530Z,23.4
2023-04-30T06:53:57.872Z,23.4
2023-04-30T06:59:18.540Z,23.5
2023-04-30T07:04:36.943Z,23.5
2023-04-30T07:09:56.169Z,23.4
2023-04-30T07:15:15.629Z,23.3
2023-04-30T07:20:34.209Z,23.1
2023-04-30T07:25:52.757Z,23
2023-04-30T07:31:10.804Z,23
2023-04-30T07:36:29.035Z,23
2023-04-30T07:41:47.055Z,23.1
2023-04-30T07:47:05.104Z,23.1
2023-04-30T07:52:23.299Z,23.1
2023-04-30T07:57:41.496Z,23.2
2023-04-30T08:02:59.801Z,23.2
2023-04-30T08:08:18.266Z,23.2
2023-04-30T08:13:36.833Z,23.2
2023-04-30T08:18:55.285Z,23.2
2023-04-30T08:24:13.828Z,23.2
2023-04-30T08:29:31.785Z,23.2
2023-04-30T08:34:50.143Z,23.2
2023-04-30T08:40:08.570Z,23.2
2023-04-30T08:45:26.985Z,23.2
2023-04-30T08:50:45.347Z,23.2
2023-04-30T08:56:03.522Z,23.2
2023-04-30T09:01:22.335Z,23.2
2023-04-30T09:06:40.774Z,23.2
2023-04-30T09:11:59.312Z,23.2
2023-04-30T09:17:18.176Z,23.3
2023-04-30T09:22:36.757Z,23.3
2023-04-30T09:27:55.439Z,23.3
2023-04-30T09:33:13.704Z,23.3
2023-04-30T09:38:32.148Z,23.3
2023-04-30T09:43:50.313Z,23.3
2023-04-30T09:49:08.667Z,23.3
2023-04-30T09:54:26.874Z,23.3
2023-04-30T09:59:45.497Z,23.3
2023-04-30T10:05:03.872Z,23.3
2023-04-30T10:10:22.223Z,23.3
2023-04-30T10:15:40.585Z,23.3
2023-04-30T10:20:58.989Z,23.3
2023-04-30T10:26:17.439Z,23.1
2023-04-30T10:31:35.599Z,22.9
2023-04-30T10:36:54.215Z,22.7
2023-04-30T10:42:12.497Z,22.7
2023-04-30T10:47:33.660Z,22.8
2023-04-30T10:52:52.096Z,22.9
2023-04-30T10:58:10.256Z,22.9
2023-04-30T11:03:28.693Z,22.9
2023-04-30T11:08:47.206Z,22.9
2023-04-30T11:14:05.544Z,23
2023-04-30T11:19:23.977Z,23
2023-04-30T11:24:42.284Z,23
2023-04-30T11:30:00.697Z,23.1
2023-04-30T11:35:19.458Z,23.1
2023-04-30T11:40:37.793Z,23.1
2023-04-30T11:45:56.349Z,23.1
2023-04-30T11:51:14.981Z,23.1
2023-04-30T11:56:33.416Z,23.1
2023-04-30T12:01:51.546Z,23.1
2023-04-30T12:07:09.864Z,23.1
2023-04-30T12:12:28.345Z,23.1
2023-04-30T12:17:46.914Z,23.2
2023-04-30T12:23:06.489Z,23.1
2023-04-30T12:28:24.745Z,23.2
2023-04-30T12:33:42.870Z,23.1
2023-04-30T12:39:01.396Z,23.1
2023-04-30T12:44:19.799Z,23.1
2023-04-30T12:49:38.382Z,23.2
2023-04-30T12:54:56.932Z,23.1
2023-04-30T13:00:15.374Z,23
2023-04-30T13:05:33.489Z,23.1
2023-04-30T13:10:51.858Z,23.1
2023-04-30T13:16:10.315Z,23.1
2023-04-30T13:21:29.696Z,23.1
2023-04-30T13:26:48.086Z,23.1
2023-04-30T13:32:07.754Z,23.1
2023-04-30T13:37:26.268Z,23.2
2023-04-30T13:42:44.918Z,23.2
2023-04-30T13:48:03.701Z,23.2
2023-04-30T13:53:22.026Z,23.2
2023-04-30T13:58:41.421Z,23.2
2023-04-30T14:04:00.156Z,23.2
2023-04-30T14:09:18.526Z,23.2
2023-04-30T14:14:39.586Z,23.2
2023-04-30T14:19:58.509Z,23.2
2023-04-30T14:25:16.712Z,23.2
2023-04-30T14:30:34.744Z,23.2
2023-04-30T14:35:53.208Z,23.2
2023-04-30T14:41:11.528Z,23.2
2023-04-30T14:46:20.000Z,23.2
2023-04-30T14:51:38.247Z,23.3
2023-04-30T14:56:56.653Z,23.3
2023-04-30T15:02:15.089Z,23.3
2023-04-30T15:07:33.639Z,23.3
2023-04-30T15:12:52.103Z,23.3
2023-04-30T15:18:10.524Z,23.3
2023-04-30T15:23:13.415Z,23.4
2023-04-30T15:28:32.209Z,23.5
2023-04-30T15:33:50.981Z,23.4
2023-04-30T15:38:54.092Z,23.4
2023-04-30T15:44:12.276Z,23.4
2023-04-30T15:49:30.646Z,23.4
2023-04-30T15:54:48.985Z,23.4
2023-04-30T16:00:07.514Z,23.4
2023-04-30T16:05:26.122Z,23.4
2023-04-30T16:16:17.368Z,23.4
2023-04-30T16:21:37.646Z,23.4
2023-04-30T16:26:56.310Z,23.4
2023-04-30T16:32:14.949Z,23.4
2023-04-30T16:37:33.199Z,23.4
2023-04-30T16:42:51.823Z,23.4
2023-04-30T16:48:10.111Z,23.5
2023-04-30T16:53:28.631Z,23.5
2023-04-30T16:58:47.334Z,23.5
2023-04-30T17:04:05.966Z,23.4
2023-04-30T17:09:24.585Z,23.4
2023-04-30T17:14:42.761Z,23.4
2023-04-30T17:20:01.402Z,23.4
2023-04-30T17:25:20.041Z,23.4
2023-04-30T17:30:38.564Z,23.4
2023-04-30T17:35:57.157Z,23.4
2023-04-30T17:41:15.179Z,23.3
2023-04-30T17:46:33.519Z,23.5
2023-04-30T17:57:20.211Z,23.4
2023-04-30T18:02:39.439Z,23.4
2023-04-30T18:07:58.905Z,23.5
2023-04-30T18:13:18.288Z,23.4
2023-04-30T18:18:36.496Z,23.4
2023-04-30T18:23:54.889Z,23.4
2023-04-30T18:29:19.099Z,23.4
2023-04-30T18:34:40.139Z,23.4
2023-04-30T18:39:58.612Z,23.4
2023-04-30T18:45:17.051Z,23.4
2023-04-30T18:50:35.250Z,23.3
2023-04-30T18:55:53.707Z,23.3
2023-04-30T19:01:11.728Z,23.3
2023-04-30T19:06:30.497Z,23.2
2023-04-30T19:11:48.855Z,23.2
2023-04-30T19:17:08.069Z,23.2
2023-04-30T19:22:26.543Z,23.2
2023-04-30T19:27:44.900Z,23.2
2023-04-30T19:33:03.432Z,23.2
2023-04-30T19:38:22.010Z,23.2
2023-04-30T19:43:40.300Z,23.2
2023-04-30T19:48:58.757Z,23.1
2023-04-30T19:54:17.807Z,23.1
2023-04-30T19:59:36.221Z,23.1
2023-04-30T20:04:54.780Z,23.1
2023-04-30T20:10:13.132Z,23.1
2023-04-30T20:15:31.217Z,23.1
2023-04-30T20:20:49.650Z,23.1
2023-04-30T20:26:08.020Z,23.1
2023-04-30T20:31:27.821Z,23.1
2023-04-30T20:36:46.400Z,23.1
2023-04-30T20:42:05.024Z,23.1
2023-04-30T20:47:23.558Z,23.1
2023-04-30T20:52:41.792Z,23.1
2023-04-30T20:57:59.968Z,23
2023-04-30T21:03:18.568Z,23
2023-04-30T21:08:37.430Z,23
2023-04-30T21:13:55.449Z,23.1
2023-04-30T21:19:13.542Z,23.1
2023-04-30T21:24:32.140Z,23.1
2023-04-30T21:29:50.471Z,23.1
2023-04-30T21:35:09.013Z,23.1
2023-04-30T21:40:27.385Z,23.1
2023-04-30T21:45:45.539Z,23.1
2023-04-30T21:51:03.806Z,23.1
2023-04-30T21:56:22.167Z,23.1
2023-04-30T22:01:40.579Z,23.1
2023-04-30T22:06:59.377Z,23.1
2023-04-30T22:12:17.474Z,23.1
2023-04-30T22:17:35.774Z,23.1
2023-04-30T22:22:54.212Z,23.1
2023-04-30T22:28:12.581Z,23.1
2023-04-30T22:33:30.946Z,23.1
2023-04-30T22:38:49.204Z,23.1
2023-04-30T22:44:07.364Z,23.1
2023-04-30T22:49:32.430Z,23.1
2023-04-30T22:54:50.942Z,23.1
2023-04-30T23:00:09.208Z,23.1
2023-04-30T23:05:27.547Z,23.1
2023-04-30T23:10:45.951Z,23.1
2023-04-30T23:16:05.765Z,23.1
2023-04-30T23:21:24.127Z,23.1
2023-04-30T23:26:42.668Z,23.1
2023-04-30T23:31:45.383Z,23.1
2023-04-30T23:37:03.630Z,23.1
2023-04-30T23:42:21.843Z,23.1
2023-04-30T23:47:40.336Z,23.1
2023-04-30T23:52:58.600Z,23.1
2023-04-30T23:58:17.005Z,23.1
